createdAt,value
2023-03-16T03:30:16.908Z,94.32
2023-03-16T03:31:17.943Z,94.01
2023-03-16T03:32:17.879Z,94.49
2023-03-16T03:33:17.881Z,94.49
2023-03-16T03:34:17.849Z,93.23
2023-03-16T03:35:17.834Z,93.44
2023-03-16T03:36:17.825Z,93.48
2023-03-16T03:37:17.813Z,93.96
2023-03-16T03:38:17.828Z,94.11
2023-03-16T03:39:17.802Z,94.38
2023-03-16T03:40:17.804Z,94.59
2023-03-16T03:41:17.770Z,95.01
2023-03-16T03:42:17.766Z,95.43
2023-03-16T03:43:17.772Z,95.11
2023-03-16T03:44:17.749Z,94.70
2023-03-16T03:45:17.734Z,94.70
2023-03-16T03:46:17.844Z,94.70
2023-03-16T03:47:17.712Z,94.90
2023-03-16T03:48:17.719Z,95.11
2023-03-16T03:49:17.701Z,95.11
2023-03-16T03:50:17.679Z,94.80
2023-03-16T03:51:17.696Z,94.27
2023-03-16T03:52:17.664Z,93.44
2023-03-16T03:53:17.646Z,93.23
2023-03-16T03:54:17.661Z,93.44
2023-03-16T03:55:17.627Z,93.65
2023-03-16T03:56:17.624Z,93.65
2023-03-16T03:57:17.606Z,93.27
2023-03-16T03:58:17.606Z,93.54
2023-03-16T03:59:17.610Z,93.48
2023-03-16T04:00:17.577Z,93.07
2023-03-16T04:01:17.568Z,92.75
2023-03-16T04:02:17.660Z,92.85
2023-03-16T04:03:17.741Z,93.80
2023-03-16T04:04:17.561Z,93.80
2023-03-16T04:05:17.524Z,93.70
2023-03-16T04:06:17.515Z,93.54
2023-03-16T04:07:17.517Z,93.13
2023-03-16T04:08:17.519Z,92.92
2023-03-16T04:09:17.489Z,93.13
2023-03-16T04:10:17.493Z,93.54
2023-03-16T04:11:17.464Z,93.54
2023-03-16T04:12:17.450Z,93.33
2023-03-16T04:13:17.445Z,93.23
2023-03-16T04:14:17.446Z,92.44
2023-03-16T04:15:17.424Z,92.85
2023-03-16T04:16:17.476Z,93.44
2023-03-16T04:17:17.410Z,93.54
2023-03-16T04:18:17.392Z,92.65
2023-03-16T04:19:17.395Z,92.96
2023-03-16T04:20:17.380Z,93.23
2023-03-16T04:21:17.366Z,93.44
2023-03-16T04:22:17.365Z,93.44
2023-03-16T04:23:17.359Z,93.44
2023-03-16T04:24:17.346Z,93.65
2023-03-16T04:25:17.320Z,93.86
2023-03-16T04:26:17.323Z,93.54
2023-03-16T04:27:17.300Z,92.71
2023-03-16T04:28:17.290Z,93.13
2023-03-16T04:29:17.310Z,92.96
2023-03-16T04:30:17.275Z,92.85
2023-03-16T04:31:17.321Z,93.48
2023-03-16T04:32:17.247Z,93.76
2023-03-16T04:33:17.238Z,93.86
2023-03-16T04:34:17.250Z,94.07
2023-03-16T04:35:17.211Z,94.07
2023-03-16T04:36:17.213Z,94.27
2023-03-16T04:37:17.193Z,94.49
2023-03-16T04:38:17.186Z,94.49
2023-03-16T04:39:17.183Z,94.49
2023-03-16T04:40:17.165Z,94.38
2023-03-16T04:41:17.155Z,94.34
2023-03-16T04:42:17.154Z,93.92
2023-03-16T04:43:17.131Z,93.50
2023-03-16T04:44:17.138Z,92.77
2023-03-16T04:45:17.117Z,91.77
2023-03-16T04:46:17.217Z,92.29
2023-03-16T04:47:17.090Z,92.71
2023-03-16T04:48:17.113Z,93.33
2023-03-16T04:49:17.082Z,93.65
2023-03-16T04:50:17.066Z,93.54
2023-03-16T04:51:17.102Z,93.54
2023-03-16T04:52:17.101Z,93.65
2023-03-16T04:53:17.043Z,92.23
2023-03-16T04:54:17.057Z,92.65
2023-03-16T04:55:17.010Z,93.38
2023-03-16T04:56:17.013Z,94.01
2023-03-16T04:57:16.985Z,94.42
2023-03-16T04:58:16.984Z,94.59
2023-03-16T04:59:16.984Z,94.90
2023-03-16T05:00:16.964Z,94.38
2023-03-16T05:01:16.916Z,93.76
2023-03-16T05:02:16.960Z,93.27
2023-03-16T05:03:16.922Z,93.17
2023-03-16T05:04:19.606Z,93.86
2023-03-16T05:05:16.931Z,94.27
2023-03-16T05:06:16.845Z,94.27
2023-03-16T05:07:16.837Z,93.96
2023-03-16T05:08:16.881Z,93.23
2023-03-16T05:09:16.878Z,92.71
2023-03-16T05:10:16.857Z,92.82
2023-03-16T05:11:16.808Z,92.13
2023-03-16T05:12:16.782Z,92.65
2023-03-16T05:13:16.784Z,93.27
2023-03-16T05:14:16.826Z,93.90
2023-03-16T05:15:16.826Z,94.32
2023-03-16T05:16:16.867Z,94.53
2023-03-16T05:17:16.729Z,94.90
2023-03-16T05:18:16.728Z,94.70
2023-03-16T05:19:16.716Z,94.49
2023-03-16T05:20:16.835Z,94.17
2023-03-16T05:21:16.696Z,94.27
2023-03-16T05:22:16.683Z,94.27
2023-03-16T05:23:16.683Z,94.27
2023-03-16T05:24:16.671Z,93.86
2023-03-16T05:25:16.672Z,93.86
2023-03-16T05:26:16.644Z,93.96
2023-03-16T05:27:16.644Z,92.71
2023-03-16T05:28:16.612Z,92.33
2023-03-16T05:29:16.639Z,92.85
2023-03-16T05:30:16.605Z,93.33
2023-03-16T05:31:16.707Z,94.07
2023-03-16T05:32:16.573Z,94.70
2023-03-16T05:33:16.590Z,94.27
2023-03-16T05:34:16.561Z,94.13
2023-03-16T05:35:16.555Z,94.02
2023-03-16T05:36:16.537Z,93.82
2023-03-16T05:37:16.534Z,93.40
2023-03-16T05:38:16.512Z,92.88
2023-03-16T05:39:16.526Z,92.77
2023-03-16T05:40:16.488Z,92.60
2023-03-16T05:41:16.482Z,92.82
2023-03-16T05:42:16.478Z,93.54
2023-03-16T05:43:16.462Z,94.13
2023-03-16T05:44:16.468Z,94.13
2023-03-16T05:45:16.436Z,94.02
2023-03-16T05:46:17.902Z,94.19
2023-03-16T05:47:16.426Z,93.67
2023-03-16T05:48:16.427Z,93.57
2023-03-16T05:49:16.423Z,93.57
2023-03-16T05:50:16.388Z,93.35
2023-03-16T05:51:16.384Z,93.00
2023-03-16T05:52:16.362Z,92.90
2023-03-16T05:53:16.399Z,93.00
2023-03-16T05:54:16.359Z,92.79
2023-03-16T05:55:16.336Z,93.10
2023-03-16T05:56:16.321Z,93.31
2023-03-16T05:57:16.312Z,92.90
2023-03-16T05:58:16.301Z,92.79
2023-03-16T05:59:16.301Z,92.94
2023-03-16T06:00:16.361Z,92.94
2023-03-16T06:01:16.276Z,93.46
2023-03-16T06:02:16.251Z,93.35
2023-03-16T06:03:16.311Z,93.35
2023-03-16T06:04:16.297Z,93.77
2023-03-16T06:05:16.235Z,94.19
2023-03-16T06:06:16.213Z,94.25
2023-03-16T06:07:16.209Z,94.35
2023-03-16T06:08:16.201Z,94.15
2023-03-16T06:09:16.193Z,93.41
2023-03-16T06:10:16.170Z,93.21
2023-03-16T06:11:16.162Z,93.06
2023-03-16T06:12:16.150Z,93.27
2023-03-16T06:13:16.144Z,93.59
2023-03-16T06:14:16.143Z,93.33
2023-03-16T06:15:16.124Z,92.02
2023-03-16T06:16:16.194Z,92.22
2023-03-16T06:17:16.103Z,92.29
2023-03-16T06:18:16.091Z,92.18
2023-03-16T06:19:16.090Z,92.29
2023-03-16T06:20:16.065Z,92.60
2023-03-16T06:21:16.062Z,92.50
2023-03-16T06:22:16.083Z,92.40
2023-03-16T06:23:16.041Z,92.29
2023-03-16T06:24:16.036Z,91.46
2023-03-16T06:25:16.016Z,91.56
2023-03-16T06:26:16.010Z,92.29
2023-03-16T06:27:16.008Z,92.56
2023-03-16T06:28:15.988Z,92.25
2023-03-16T06:29:15.984Z,92.03
2023-03-16T06:30:15.979Z,91.41
2023-03-16T06:31:15.983Z,90.79
2023-03-16T06:32:15.943Z,90.72
2023-03-16T06:33:15.936Z,91.35
2023-03-16T06:34:15.939Z,91.83
2023-03-16T06:35:15.930Z,92.25
2023-03-16T06:36:15.931Z,91.46
2023-03-16T06:37:15.890Z,90.83
2023-03-16T06:38:15.878Z,91.35
2023-03-16T06:39:15.900Z,91.97
2023-03-16T06:40:15.859Z,92.25
2023-03-16T06:41:15.856Z,90.37
2023-03-16T06:42:15.844Z,89.29
2023-03-16T06:43:15.831Z,88.35
2023-03-16T06:44:15.836Z,87.99
2023-03-16T06:45:15.809Z,87.99
2023-03-16T06:46:15.844Z,88.62
2023-03-16T06:47:15.789Z,88.68
2023-03-16T06:48:15.785Z,89.10
2023-03-16T06:49:15.775Z,89.31
2023-03-16T06:50:15.773Z,89.73
2023-03-16T06:51:16.926Z,88.43
2023-03-16T06:52:15.724Z,86.57
2023-03-16T06:53:15.726Z,87.08
2023-03-16T06:54:15.720Z,87.92
2023-03-16T06:55:15.709Z,88.43
2023-03-16T06:56:15.697Z,88.60
2023-03-16T06:57:15.688Z,88.71
2023-03-16T06:58:15.666Z,88.92
2023-03-16T06:59:15.703Z,87.88
2023-03-16T07:00:15.694Z,86.00
2023-03-16T07:01:15.718Z,85.75
2023-03-16T07:02:15.652Z,84.20
2023-03-16T07:03:15.619Z,84.37
2023-03-16T07:04:15.660Z,85.10
2023-03-16T07:05:15.804Z,84.89
2023-03-16T07:06:15.577Z,84.74
2023-03-16T07:07:15.584Z,83.81
2023-03-16T07:08:15.577Z,83.91
2023-03-16T07:09:15.590Z,80.49
2023-03-16T07:10:15.554Z,79.76
2023-03-16T07:11:15.536Z,79.97
2023-03-16T07:12:15.534Z,81.38
2023-03-16T07:13:15.516Z,82.01
2023-03-16T07:14:15.511Z,80.76
2023-03-16T07:15:15.483Z,81.18
2023-03-16T07:16:15.579Z,82.53
2023-03-16T07:17:15.460Z,81.73
2023-03-16T07:18:15.443Z,79.83
2023-03-16T07:19:15.461Z,78.58
2023-03-16T07:20:15.435Z,77.75
2023-03-16T07:21:15.453Z,77.82
2023-03-16T07:22:15.403Z,77.40
2023-03-16T07:23:15.402Z,78.86
2023-03-16T07:24:15.399Z,76.57
2023-03-16T07:25:15.392Z,77.37
2023-03-16T07:26:15.379Z,76.54
2023-03-16T07:27:15.447Z,76.95
2023-03-16T07:28:15.347Z,77.68
2023-03-16T07:29:15.365Z,76.50
2023-03-16T07:30:15.321Z,74.74
2023-03-16T07:31:15.362Z,75.43
2023-03-16T07:32:15.296Z,74.81
2023-03-16T07:33:15.287Z,74.81
2023-03-16T07:34:15.287Z,74.81
2023-03-16T07:35:15.264Z,74.40
2023-03-16T07:36:15.333Z,73.77
2023-03-16T07:37:16.179Z,73.77
2023-03-16T07:38:15.251Z,73.32
2023-03-16T07:39:15.236Z,72.71
2023-03-16T07:40:15.245Z,74.77
2023-03-16T07:41:15.300Z,75.09
2023-03-16T07:42:15.198Z,74.57
2023-03-16T07:43:15.188Z,75.67
2023-03-16T07:44:15.203Z,74.02
2023-03-16T07:45:15.174Z,73.32
2023-03-16T07:46:15.236Z,72.98
2023-03-16T07:47:15.150Z,72.67
2023-03-16T07:48:15.123Z,72.46
2023-03-16T07:49:15.148Z,72.05
2023-03-16T07:50:15.115Z,72.46
2023-03-16T07:51:15.111Z,73.71
2023-03-16T07:52:15.092Z,72.64
2023-03-16T07:53:15.081Z,72.02
2023-03-16T07:54:15.064Z,72.91
2023-03-16T07:55:15.057Z,70.84
2023-03-16T07:56:15.035Z,71.57
2023-03-16T07:57:15.071Z,72.08
2023-03-16T07:58:15.018Z,71.26
2023-03-16T07:59:15.032Z,71.12
2023-03-16T08:00:14.991Z,70.19
2023-03-16T08:01:14.988Z,69.98
2023-03-16T08:02:15.015Z,70.40
2023-03-16T08:03:15.024Z,70.71
2023-03-16T08:04:14.967Z,71.53
2023-03-16T08:05:14.949Z,71.05
2023-03-16T08:06:14.931Z,71.26
2023-03-16T08:07:14.925Z,70.84
2023-03-16T08:08:14.907Z,71.88
2023-03-16T08:09:14.911Z,71.02
2023-03-16T08:10:14.884Z,70.92
2023-03-16T08:11:14.882Z,70.50
2023-03-16T08:12:14.881Z,70.57
2023-03-16T08:13:15.057Z,70.81
2023-03-16T08:14:14.883Z,69.74
2023-03-16T08:15:14.884Z,69.43
2023-03-16T08:16:14.889Z,70.78
2023-03-16T08:17:14.857Z,70.16
2023-03-16T08:18:15.482Z,71.09
2023-03-16T08:19:14.856Z,70.47
2023-03-16T08:20:14.840Z,71.19
2023-03-16T08:21:14.800Z,70.06
2023-03-16T08:22:14.778Z,69.33
2023-03-16T08:23:14.751Z,70.71
2023-03-16T08:24:14.761Z,70.37
2023-03-16T08:25:14.765Z,70.67
2023-03-16T08:26:14.768Z,70.67
2023-03-16T08:27:14.842Z,71.19
2023-03-16T08:28:14.777Z,70.54
2023-03-16T08:29:14.728Z,70.12
2023-03-16T08:30:14.697Z,69.92
2023-03-16T08:31:14.902Z,69.37
2023-03-16T08:32:14.705Z,69.58
2023-03-16T08:33:14.658Z,69.37
2023-03-16T08:34:14.666Z,68.78
2023-03-16T08:35:14.639Z,70.33
2023-03-16T08:36:14.646Z,70.82
2023-03-16T08:37:14.620Z,70.99
2023-03-16T08:38:14.596Z,68.51
2023-03-16T08:39:14.597Z,68.30
2023-03-16T08:40:14.687Z,69.10
2023-03-16T08:41:14.568Z,67.35
2023-03-16T08:42:14.643Z,67.35
2023-03-16T08:43:14.560Z,68.17
2023-03-16T08:44:14.579Z,67.45
2023-03-16T08:45:14.600Z,67.24
2023-03-16T08:46:14.527Z,67.17
2023-03-16T08:47:14.508Z,67.90
2023-03-16T08:48:14.493Z,67.38
2023-03-16T08:49:14.498Z,68.82
2023-03-16T08:50:14.469Z,68.10
2023-03-16T08:51:14.496Z,68.10
2023-03-16T08:52:14.538Z,67.58
2023-03-16T08:53:14.458Z,67.86
2023-03-16T08:54:14.459Z,67.32
2023-03-16T08:55:15.206Z,66.67
2023-03-16T08:56:14.452Z,66.05
2023-03-16T08:57:14.394Z,65.95
2023-03-16T08:58:14.373Z,66.05
2023-03-16T08:59:27.265Z,66.77
2023-03-16T09:00:14.361Z,66.36
2023-03-16T09:01:14.341Z,66.22
2023-03-16T09:02:14.628Z,66.02
2023-03-16T09:03:14.585Z,68.52
2023-03-16T09:04:14.392Z,68.11
2023-03-16T09:05:14.333Z,66.36
2023-03-16T09:06:14.357Z,66.56
2023-03-16T09:07:14.348Z,66.15
2023-03-16T09:08:14.289Z,65.33
2023-03-16T09:09:14.431Z,65.81
2023-03-16T09:10:14.317Z,65.12
2023-03-16T09:11:14.412Z,66.05
2023-03-16T09:12:14.221Z,68.32
2023-03-16T09:13:14.235Z,67.70
2023-03-16T09:14:14.231Z,66.43
2023-03-16T09:15:14.257Z,68.08
2023-03-16T09:16:14.251Z,66.94
2023-03-16T09:17:14.190Z,65.53
2023-03-16T09:18:14.227Z,67.60
2023-03-16T09:19:14.194Z,66.56
2023-03-16T09:20:34.743Z,66.36
2023-03-16T09:21:14.142Z,68.32
2023-03-16T09:22:14.121Z,66.25
2023-03-16T09:23:14.148Z,66.39
2023-03-16T09:24:14.163Z,66.18
2023-03-16T09:25:14.137Z,67.11
2023-03-16T09:26:14.280Z,67.70
2023-03-16T09:27:14.263Z,67.49
2023-03-16T09:28:14.084Z,66.97
2023-03-16T09:29:14.072Z,66.87
2023-03-16T09:30:14.043Z,66.05
2023-03-16T09:31:14.149Z,67.18
2023-03-16T09:32:14.027Z,67.60
2023-03-16T09:33:14.016Z,67.70
2023-03-16T09:34:14.861Z,69.21
2023-03-16T09:35:13.991Z,67.02
2023-03-16T09:36:14.001Z,66.64
2023-03-16T09:37:14.024Z,65.89
2023-03-16T09:38:14.957Z,63.81
2023-03-16T09:39:13.961Z,62.04
2023-03-16T09:40:13.961Z,61.42
2023-03-16T09:41:13.932Z,62.45
2023-03-16T09:42:13.933Z,62.14
2023-03-16T09:43:13.906Z,61.42
2023-03-16T09:44:41.220Z,61.52
2023-03-16T09:45:13.895Z,61.18
2023-03-16T09:46:30.432Z,59.77
2023-03-16T09:47:13.881Z,59.92
2023-03-16T09:48:13.862Z,60.75
2023-03-16T09:49:13.907Z,56.99
2023-03-16T09:50:13.899Z,54.00
2023-03-16T09:56:42.740Z,55.69
2023-03-16T09:56:49.444Z,55.82
2023-03-16T09:57:49.557Z,56.15
2023-03-16T09:59:04.017Z,56.41
2023-03-16T10:00:09.466Z,58.33
2023-03-16T10:00:47.741Z,58.73
2023-03-16T10:01:47.699Z,56.66
2023-03-16T10:02:47.692Z,57.10
2023-03-16T10:03:47.684Z,57.43
2023-03-16T10:04:47.666Z,57.92
2023-03-16T10:05:47.628Z,57.75
2023-03-16T10:06:47.612Z,59.59
2023-03-16T10:07:47.587Z,58.67
2023-03-16T10:08:49.510Z,59.48
2023-03-16T10:09:47.609Z,59.38
2023-03-16T10:10:47.573Z,59.31
2023-03-16T10:11:47.564Z,60.44
2023-03-16T10:12:47.548Z,60.31
2023-03-16T10:13:47.533Z,58.97
2023-03-16T10:14:47.577Z,59.08
2023-03-16T10:15:47.614Z,61.44
2023-03-16T10:16:47.562Z,61.13
2023-03-16T10:17:49.242Z,60.00
2023-03-16T10:18:47.536Z,59.69
2023-03-16T10:19:47.483Z,61.02
2023-03-16T10:20:47.470Z,59.13
2023-03-16T10:21:47.486Z,60.16
2023-03-16T10:22:47.616Z,61.08
2023-03-16T10:23:49.542Z,62.11
2023-03-16T10:24:47.517Z,61.70
2023-03-16T10:26:02.173Z,60.98
2023-03-16T10:26:47.390Z,60.23
2023-03-16T10:27:47.374Z,60.82
2023-03-16T10:28:47.360Z,59.28
2023-03-16T10:29:47.356Z,59.18
2023-03-16T10:30:47.357Z,60.61
2023-03-16T10:31:47.470Z,60.41
2023-03-16T10:32:47.389Z,60.61
2023-03-16T10:33:47.306Z,59.92
2023-03-16T10:34:47.318Z,61.26
2023-03-16T10:35:47.280Z,60.67
2023-03-16T10:36:47.329Z,61.00
2023-03-16T10:37:47.264Z,62.75
2023-03-16T10:38:47.260Z,62.65
2023-03-16T10:39:47.252Z,62.96
2023-03-16T10:40:47.244Z,61.29
2023-03-16T10:41:47.223Z,61.39
2023-03-16T10:42:47.220Z,61.46
2023-03-16T10:43:47.197Z,61.64
2023-03-16T10:44:47.210Z,62.02
2023-03-16T10:45:47.236Z,60.66
2023-03-16T10:46:47.353Z,60.76
2023-03-16T10:47:47.166Z,58.20
2023-03-16T10:48:47.157Z,58.00
2023-03-16T10:49:47.178Z,59.02
2023-03-16T10:50:47.130Z,58.74
2023-03-16T10:51:47.129Z,58.92
2023-03-16T10:52:47.113Z,59.23
2023-03-16T10:53:47.096Z,58.61
2023-03-16T10:54:47.087Z,58.69
2023-03-16T10:55:47.082Z,58.17
2023-03-16T10:56:47.070Z,58.30
2023-03-16T10:57:47.051Z,58.72
2023-03-16T10:58:47.058Z,58.28
2023-03-16T10:59:47.034Z,60.02
2023-03-16T11:00:47.043Z,58.69
2023-03-16T11:01:47.020Z,57.46
2023-03-16T11:02:47.020Z,57.56
2023-03-16T11:03:47.025Z,59.78
2023-03-16T11:04:47.021Z,58.02
2023-03-16T11:05:46.984Z,56.18
2023-03-16T11:06:46.968Z,56.53
2023-03-16T11:07:46.966Z,58.22
2023-03-16T11:08:46.956Z,54.61
2023-03-16T11:09:46.936Z,54.54
2023-03-16T11:10:55.647Z,54.69
2023-03-16T11:11:46.948Z,56.33
2023-03-16T11:12:46.921Z,56.74
2023-03-16T11:13:46.912Z,56.43
2023-03-16T11:14:46.891Z,57.32
2023-03-16T11:15:46.874Z,55.26
2023-03-16T11:16:46.985Z,55.54
2023-03-16T11:17:46.847Z,54.46
2023-03-16T11:18:46.854Z,53.19
2023-03-16T11:19:48.570Z,53.42
2023-03-16T11:20:46.825Z,53.50
2023-03-16T11:21:46.807Z,52.88
2023-03-16T11:22:46.792Z,53.11
2023-03-16T11:23:46.809Z,54.87
2023-03-16T11:24:46.783Z,53.55
2023-03-16T11:25:46.766Z,54.24
2023-03-16T11:26:48.334Z,53.03
2023-03-16T11:27:46.745Z,54.69
2023-03-16T11:28:46.737Z,56.35
2023-03-16T11:29:46.714Z,55.82
2023-03-16T11:30:46.753Z,54.57
2023-03-16T11:31:46.708Z,53.01
2023-03-16T11:32:46.713Z,54.61
2023-03-16T11:33:46.694Z,52.61
2023-03-16T11:34:46.676Z,50.25
2023-03-16T11:35:58.002Z,48.35
2023-03-16T11:36:46.695Z,46.30
2023-03-16T11:37:46.644Z,45.70
2023-03-16T11:38:46.644Z,46.28
2023-03-16T11:39:46.615Z,44.66
2023-03-16T11:40:46.618Z,47.35
2023-03-16T11:41:46.614Z,44.46
2023-03-16T11:42:46.607Z,41.36
2023-03-16T11:43:46.564Z,42.07
2023-03-16T11:44:48.281Z,43.06
2023-03-16T11:45:46.587Z,42.09
2023-03-16T11:46:46.635Z,44.64
2023-03-16T11:47:46.561Z,42.76
2023-03-16T11:48:46.517Z,44.36
2023-03-16T11:49:46.539Z,44.68
2023-03-16T11:50:46.520Z,44.81
2023-03-16T11:51:46.492Z,44.15
2023-03-16T11:52:46.484Z,43.73
2023-03-16T11:53:46.457Z,44.89
2023-03-16T11:54:46.445Z,44.84
2023-03-16T11:55:46.447Z,45.55
2023-03-16T11:56:46.442Z,45.15
2023-03-16T11:57:46.445Z,45.07
2023-03-16T11:58:46.438Z,46.61
2023-03-16T11:59:55.318Z,46.27
2023-03-16T12:00:46.398Z,45.84
2023-03-16T12:01:58.180Z,45.46
2023-03-16T12:02:46.694Z,46.73
2023-03-16T12:03:46.355Z,45.86
2023-03-16T12:04:46.359Z,45.72
2023-03-16T12:05:46.542Z,44.99
2023-03-16T12:06:46.321Z,45.01
2023-03-16T12:07:46.308Z,47.22
2023-03-16T12:08:46.306Z,46.25
2023-03-16T12:09:46.283Z,47.06
2023-03-16T12:10:46.295Z,47.22
2023-03-16T12:11:46.409Z,45.25
2023-03-16T12:12:46.278Z,45.51
2023-03-16T12:13:46.308Z,47.09
2023-03-16T12:14:46.230Z,45.11
2023-03-16T12:15:46.305Z,45.21
2023-03-16T12:16:49.507Z,45.87
2023-03-16T12:17:46.197Z,46.24
2023-03-16T12:18:46.183Z,47.35
2023-03-16T12:19:46.173Z,43.18
2023-03-16T12:20:46.173Z,44.09
2023-03-16T12:21:46.152Z,42.98
2023-03-16T12:22:46.147Z,42.68
2023-03-16T12:23:46.125Z,45.06
2023-03-16T12:24:46.151Z,42.09
2023-03-16T12:25:46.138Z,41.22
2023-03-16T12:26:46.104Z,39.58
2023-03-16T12:27:46.093Z,39.74
2023-03-16T12:28:46.122Z,38.79
2023-03-16T12:29:46.063Z,39.48
2023-03-16T12:30:46.071Z,40.44
2023-03-16T12:31:46.082Z,42.05
2023-03-16T12:32:46.092Z,44.46
2023-03-16T12:33:46.054Z,46.89
2023-03-16T12:34:46.013Z,44.03
2023-03-16T12:35:46.065Z,45.11
2023-03-16T12:36:45.999Z,46.22
2023-03-16T12:37:45.995Z,44.93
2023-03-16T12:38:45.981Z,47.28
2023-03-16T12:39:45.965Z,47.43
2023-03-16T12:40:45.968Z,48.13
2023-03-16T12:41:45.953Z,49.42
2023-03-16T12:42:45.964Z,51.33
2023-03-16T12:43:45.969Z,51.72
2023-03-16T12:44:45.914Z,51.08
2023-03-16T12:45:45.923Z,49.65
2023-03-16T12:46:47.847Z,51.31
2023-03-16T12:47:45.877Z,50.21
2023-03-16T12:48:45.888Z,51.84
2023-03-16T12:49:45.850Z,51.46
2023-03-16T12:50:45.874Z,51.56
2023-03-16T12:51:45.834Z,52.15
2023-03-16T12:52:45.820Z,52.43
2023-03-16T12:53:45.802Z,53.29
2023-03-16T12:54:45.808Z,51.53
2023-03-16T12:55:45.817Z,50.64
2023-03-16T12:56:45.784Z,51.23
2023-03-16T12:57:45.757Z,51.23
2023-03-16T12:58:45.787Z,51.46
2023-03-16T12:59:45.766Z,51.89
2023-03-16T13:00:45.822Z,50.87
2023-03-16T13:01:45.734Z,50.97
2023-03-16T13:02:45.720Z,50.64
2023-03-16T13:03:45.730Z,51.23
2023-03-16T13:04:45.778Z,50.21
2023-03-16T13:05:45.710Z,51.13
2023-03-16T13:06:45.676Z,49.58
2023-03-16T13:07:45.653Z,49.86
2023-03-16T13:08:45.672Z,47.97
2023-03-16T13:09:45.634Z,48.27
2023-03-16T13:10:45.653Z,50.01
2023-03-16T13:11:45.639Z,48.27
2023-03-16T13:12:45.608Z,48.58
2023-03-16T13:13:45.612Z,48.40
2023-03-16T13:14:45.586Z,49.24
2023-03-16T13:15:45.587Z,49.24
2023-03-16T13:16:45.745Z,50.23
2023-03-16T13:17:45.601Z,50.26
2023-03-16T13:18:45.542Z,48.32
2023-03-16T13:19:45.530Z,48.42
2023-03-16T13:20:45.528Z,49.83
2023-03-16T13:21:45.551Z,48.99
2023-03-16T13:22:45.495Z,50.64
2023-03-16T13:23:45.483Z,49.29
2023-03-16T13:24:45.477Z,48.07
2023-03-16T13:25:45.593Z,47.46
2023-03-16T13:26:45.458Z,48.18
2023-03-16T13:27:45.432Z,47.34
2023-03-16T13:28:45.446Z,47.01
2023-03-16T13:29:45.436Z,47.31
2023-03-16T13:30:45.474Z,46.30
2023-03-16T13:31:45.458Z,46.60
2023-03-16T13:32:45.451Z,46.42
2023-03-16T13:33:45.369Z,47.34
2023-03-16T13:34:45.376Z,46.60
2023-03-16T13:35:45.471Z,46.11
2023-03-16T13:36:45.424Z,47.54
2023-03-16T13:37:45.340Z,47.24
2023-03-16T13:38:45.340Z,48.86
2023-03-16T13:39:45.317Z,48.56
2023-03-16T13:40:45.317Z,48.13
2023-03-16T13:41:45.314Z,48.21
2023-03-16T13:42:45.298Z,47.39
2023-03-16T13:43:45.269Z,47.98
2023-03-16T13:44:45.267Z,45.83
2023-03-16T13:45:45.281Z,48.75
2023-03-16T13:46:45.265Z,46.04
2023-03-16T13:47:45.264Z,43.75
2023-03-16T13:48:45.235Z,43.20
2023-03-16T13:49:45.217Z,43.37
2023-03-16T13:50:45.208Z,41.14
2023-03-16T13:51:45.184Z,43.23
2023-03-16T13:52:45.173Z,39.55
2023-03-16T13:53:45.157Z,40.41
2023-03-16T13:54:45.180Z,41.50
2023-03-16T13:55:45.145Z,41.00
2023-03-16T13:56:45.202Z,40.61
2023-03-16T13:57:45.140Z,40.73
2023-03-16T13:58:45.112Z,41.16
2023-03-16T13:59:45.103Z,40.98
2023-03-16T14:00:45.130Z,41.78
2023-03-16T14:01:45.089Z,42.55
2023-03-16T14:02:45.106Z,43.02
2023-03-16T14:03:45.051Z,42.11
2023-03-16T14:04:45.042Z,41.00
2023-03-16T14:05:45.044Z,41.02
2023-03-16T14:06:45.020Z,41.93
2023-03-16T14:07:45.038Z,42.11
2023-03-16T14:08:44.993Z,40.98
2023-03-16T14:09:44.993Z,41.97
2023-03-16T14:10:44.988Z,43.04
2023-03-16T14:11:44.977Z,41.22
2023-03-16T14:12:44.951Z,40.06
2023-03-16T14:13:44.957Z,41.64
2023-03-16T14:14:44.931Z,42.31
2023-03-16T14:15:44.983Z,43.43
2023-03-16T14:16:44.917Z,43.59
2023-03-16T14:17:44.940Z,41.91
2023-03-16T14:18:44.942Z,42.49
2023-03-16T14:19:44.890Z,41.74
2023-03-16T14:20:44.888Z,43.18
2023-03-16T14:21:44.864Z,44.50
2023-03-16T14:22:44.862Z,42.60
2023-03-16T14:23:44.853Z,40.13
2023-03-16T14:24:44.834Z,39.20
2023-03-16T14:25:44.831Z,41.35
2023-03-16T14:26:44.814Z,41.18
2023-03-16T14:27:44.804Z,40.37
2023-03-16T14:28:44.788Z,41.20
2023-03-16T14:29:44.785Z,41.00
2023-03-16T14:30:44.859Z,42.27
2023-03-16T14:31:44.798Z,40.35
2023-03-16T14:32:44.766Z,40.77
2023-03-16T14:33:44.734Z,41.08
2023-03-16T14:34:44.743Z,41.50
2023-03-16T14:35:44.835Z,41.32
2023-03-16T14:36:44.697Z,42.49
2023-03-16T14:37:44.695Z,40.57
2023-03-16T14:38:44.679Z,41.46
2023-03-16T14:39:44.686Z,41.66
2023-03-16T14:40:44.729Z,40.80
2023-03-16T14:41:44.657Z,42.31
2023-03-16T14:42:44.634Z,40.95
2023-03-16T14:43:44.643Z,39.56
2023-03-16T14:44:44.631Z,40.71
2023-03-16T14:45:44.649Z,41.66
2023-03-16T14:46:44.605Z,42.17
2023-03-16T14:47:44.597Z,43.49
2023-03-16T14:48:44.567Z,42.46
2023-03-16T14:49:44.570Z,41.24
2023-03-16T14:50:44.595Z,41.02
2023-03-16T14:51:44.539Z,41.49
2023-03-16T14:52:44.547Z,40.15
2023-03-16T14:53:44.600Z,42.92
2023-03-16T14:54:44.501Z,41.91
2023-03-16T14:55:44.512Z,43.04
2023-03-16T14:56:44.503Z,42.03
2023-03-16T14:57:44.515Z,42.31
2023-03-16T14:58:44.474Z,42.80
2023-03-16T14:59:44.484Z,40.53
2023-03-16T15:00:52.762Z,42.03
2023-03-16T15:01:44.517Z,40.92
2023-03-16T15:02:44.461Z,42.41
2023-03-16T15:03:44.407Z,40.51
2023-03-16T15:04:44.400Z,41.95
2023-03-16T15:05:44.428Z,41.52
2023-03-16T15:06:44.384Z,41.72
2023-03-16T15:07:44.416Z,41.42
2023-03-16T15:08:44.421Z,42.05
2023-03-16T15:09:44.352Z,43.61
2023-03-16T15:10:44.343Z,42.90
2023-03-16T15:11:44.341Z,43.75
2023-03-16T15:12:44.323Z,44.12
2023-03-16T15:13:46.868Z,43.65
2023-03-16T15:14:44.305Z,43.77
2023-03-16T15:15:44.326Z,44.71
2023-03-16T15:16:44.301Z,45.84
2023-03-16T15:17:44.268Z,46.09
2023-03-16T15:18:44.266Z,46.01
2023-03-16T15:19:44.257Z,46.09
2023-03-16T15:20:44.223Z,46.07
2023-03-16T15:21:44.243Z,45.87
2023-03-16T15:22:44.204Z,45.24
2023-03-16T15:23:44.212Z,44.81
2023-03-16T15:24:44.286Z,43.32
2023-03-16T15:25:44.177Z,43.85
2023-03-16T15:26:44.174Z,44.16
2023-03-16T15:27:44.158Z,43.30
2023-03-16T15:28:44.145Z,43.98
2023-03-16T15:29:44.144Z,42.84
2023-03-16T15:30:44.117Z,41.38
2023-03-16T15:31:44.174Z,41.87
2023-03-16T15:32:44.122Z,41.35
2023-03-16T15:33:44.110Z,41.24
2023-03-16T15:34:44.071Z,40.84
2023-03-16T15:35:44.169Z,42.23
2023-03-16T15:36:44.073Z,42.69
2023-03-16T15:37:44.042Z,43.02
2023-03-16T15:38:44.030Z,43.91
2023-03-16T15:39:44.043Z,43.55
2023-03-16T15:40:44.125Z,44.28
2023-03-16T15:41:47.807Z,45.03
2023-03-16T15:42:46.435Z,45.14
2023-03-16T15:43:43.988Z,45.36
2023-03-16T15:44:43.970Z,45.87
2023-03-16T15:45:43.957Z,46.68
2023-03-16T15:46:44.004Z,46.76
2023-03-16T15:47:43.934Z,46.62
2023-03-16T15:48:43.925Z,45.28
2023-03-16T15:49:48.067Z,45.20
2023-03-16T15:50:43.909Z,45.17
2023-03-16T15:51:43.914Z,43.96
2023-03-16T15:52:43.876Z,44.59
2023-03-16T15:53:43.879Z,45.50
2023-03-16T15:54:43.863Z,46.28
2023-03-16T15:55:43.861Z,47.31
2023-03-16T15:56:53.814Z,48.27
2023-03-16T15:57:43.840Z,48.38
2023-03-16T15:58:43.810Z,48.68
2023-03-16T15:59:43.809Z,48.30
2023-03-16T16:00:43.830Z,49.21
2023-03-16T16:01:43.807Z,48.93
2023-03-16T16:02:43.802Z,48.83
2023-03-16T16:03:43.826Z,48.93
2023-03-16T16:04:43.783Z,49.65
2023-03-16T16:05:43.728Z,49.13
2023-03-16T16:06:43.742Z,50.28
2023-03-16T16:07:43.717Z,50.79
2023-03-16T16:08:43.690Z,51.51
2023-03-16T16:09:43.682Z,50.92
2023-03-16T16:10:43.685Z,50.71
2023-03-16T16:11:43.704Z,50.51
2023-03-16T16:12:43.644Z,50.92
2023-03-16T16:13:45.143Z,51.22
2023-03-16T16:14:43.631Z,50.61
2023-03-16T16:15:43.621Z,51.43
2023-03-16T16:16:43.673Z,50.48
2023-03-16T16:17:56.781Z,50.38
2023-03-16T16:18:43.597Z,50.28
2023-03-16T16:19:43.577Z,52.22
2023-03-16T16:20:43.582Z,51.10
2023-03-16T16:21:43.565Z,51.12
2023-03-16T16:22:43.540Z,51.22
2023-03-16T16:23:43.536Z,50.71
2023-03-16T16:24:43.541Z,51.02
2023-03-16T16:25:43.510Z,51.22
2023-03-16T16:26:58.757Z,51.84